sensor_id;sensor_type;location;lat;lon;timestamp;P1;durP1;ratioP1;P2;durP2;ratioP2
33184;SDS011;19550;42.872;25.494;2023-02-15T00:01:04;70.18;;;35.63;;
33184;SDS011;19550;42.872;25.494;2023-02-15T00:03:31;70.63;;;36.03;;
33184;SDS011;19550;42.872;25.494;2023-02-15T00:05:58;60.40;;;30.20;;
33184;SDS011;19550;42.872;25.494;2023-02-15T00:08:25;56.42;;;27.88;;
33184;SDS011;19550;42.872;25.494;2023-02-15T00:10:52;61.83;;;29.98;;
33184;SDS011;19550;42.872;25.494;2023-02-15T00:13:19;61.47;;;29.13;;
33184;SDS011;19550;42.872;25.494;2023-02-15T00:15:46;64.03;;;31.90;;
33184;SDS011;19550;42.872;25.494;2023-02-15T00:18:15;59.13;;;28.65;;
33184;SDS011;19550;42.872;25.494;2023-02-15T00:20:42;60.55;;;28.75;;
33184;SDS011;19550;42.872;25.494;2023-02-15T00:23:08;57.38;;;29.50;;
33184;SDS011;19550;42.872;25.494;2023-02-15T00:25:35;62.08;;;30.60;;
33184;SDS011;19550;42.872;25.494;2023-02-15T00:28:02;59.92;;;29.40;;
33184;SDS011;19550;42.872;25.494;2023-02-15T00:30:31;52.08;;;25.77;;
33184;SDS011;19550;42.872;25.494;2023-02-15T00:32:58;59.00;;;28.80;;
33184;SDS011;19550;42.872;25.494;2023-02-15T00:35:26;55.72;;;27.80;;
33184;SDS011;19550;42.872;25.494;2023-02-15T00:37:53;56.22;;;28.63;;
33184;SDS011;19550;42.872;25.494;2023-02-15T00:40:19;56.03;;;26.27;;
33184;SDS011;19550;42.872;25.494;2023-02-15T00:42:46;59.50;;;28.70;;
33184;SDS011;19550;42.872;25.494;2023-02-15T00:45:13;53.15;;;25.40;;
33184;SDS011;19550;42.872;25.494;2023-02-15T00:47:40;66.75;;;29.35;;
33184;SDS011;19550;42.872;25.494;2023-02-15T00:50:07;65.15;;;30.63;;
33184;SDS011;19550;42.872;25.494;2023-02-15T00:52:36;63.40;;;30.75;;
33184;SDS011;19550;42.872;25.494;2023-02-15T00:55:03;67.07;;;31.88;;
33184;SDS011;19550;42.872;25.494;2023-02-15T00:57:30;67.13;;;31.73;;
33184;SDS011;19550;42.872;25.494;2023-02-15T00:59:56;55.95;;;28.17;;
33184;SDS011;19550;42.872;25.494;2023-02-15T01:02:23;53.95;;;27.38;;
33184;SDS011;19550;42.872;25.494;2023-02-15T01:04:50;68.97;;;32.50;;
33184;SDS011;19550;42.872;25.494;2023-02-15T01:07:17;55.35;;;26.60;;
33184;SDS011;19550;42.872;25.494;2023-02-15T01:09:45;56.40;;;27.20;;
33184;SDS011;19550;42.872;25.494;2023-02-15T01:12:12;60.13;;;29.88;;
33184;SDS011;19550;42.872;25.494;2023-02-15T01:14:39;56.35;;;27.83;;
33184;SDS011;19550;42.872;25.494;2023-02-15T01:17:06;60.40;;;28.52;;
33184;SDS011;19550;42.872;25.494;2023-02-15T01:19:33;67.70;;;30.08;;
33184;SDS011;19550;42.872;25.494;2023-02-15T01:22:00;58.33;;;29.35;;
33184;SDS011;19550;42.872;25.494;2023-02-15T01:24:27;52.15;;;26.20;;
33184;SDS011;19550;42.872;25.494;2023-02-15T01:26:55;54.38;;;26.50;;
33184;SDS011;19550;42.872;25.494;2023-02-15T01:29:22;61.35;;;28.42;;
33184;SDS011;19550;42.872;25.494;2023-02-15T01:31:49;52.17;;;26.15;;
33184;SDS011;19550;42.872;25.494;2023-02-15T01:34:15;55.88;;;26.60;;
33184;SDS011;19550;42.872;25.494;2023-02-15T01:36:42;57.15;;;26.77;;
33184;SDS011;19550;42.872;25.494;2023-02-15T01:39:09;53.45;;;25.10;;
33184;SDS011;19550;42.872;25.494;2023-02-15T01:41:36;51.67;;;25.10;;
33184;SDS011;19550;42.872;25.494;2023-02-15T01:47:05;53.05;;;24.45;;
33184;SDS011;19550;42.872;25.494;2023-02-15T01:49:35;53.38;;;24.70;;
33184;SDS011;19550;42.872;25.494;2023-02-15T01:52:02;59.63;;;25.90;;
33184;SDS011;19550;42.872;25.494;2023-02-15T01:54:31;50.65;;;25.25;;
33184;SDS011;19550;42.872;25.494;2023-02-15T01:57:01;53.63;;;25.27;;
33184;SDS011;19550;42.872;25.494;2023-02-15T02:01:58;50.85;;;25.05;;
33184;SDS011;19550;42.872;25.494;2023-02-15T02:04:29;49.97;;;25.20;;
33184;SDS011;19550;42.872;25.494;2023-02-15T02:07:01;57.95;;;26.92;;
33184;SDS011;19550;42.872;25.494;2023-02-15T02:09:30;57.67;;;26.55;;
33184;SDS011;19550;42.872;25.494;2023-02-15T02:11:56;52.85;;;26.38;;
33184;SDS011;19550;42.872;25.494;2023-02-15T02:14:24;50.92;;;24.88;;
33184;SDS011;19550;42.872;25.494;2023-02-15T02:16:52;59.28;;;26.23;;
33184;SDS011;19550;42.872;25.494;2023-02-15T02:19:36;57.53;;;25.83;;
33184;SDS011;19550;42.872;25.494;2023-02-15T02:22:39;51.75;;;24.85;;
33184;SDS011;19550;42.872;25.494;2023-02-15T02:28:38;50.08;;;23.98;;
33184;SDS011;19550;42.872;25.494;2023-02-15T02:34:36;54.15;;;26.00;;
33184;SDS011;19550;42.872;25.494;2023-02-15T02:37:12;52.25;;;23.70;;
33184;SDS011;19550;42.872;25.494;2023-02-15T02:39:48;61.08;;;27.77;;
33184;SDS011;19550;42.872;25.494;2023-02-15T02:42:18;48.70;;;24.95;;
33184;SDS011;19550;42.872;25.494;2023-02-15T02:44:56;55.92;;;25.30;;
33184;SDS011;19550;42.872;25.494;2023-02-15T02:47:30;55.38;;;25.58;;
33184;SDS011;19550;42.872;25.494;2023-02-15T02:50:04;53.17;;;25.58;;
33184;SDS011;19550;42.872;25.494;2023-02-15T02:52:37;48.75;;;22.88;;
33184;SDS011;19550;42.872;25.494;2023-02-15T02:55:06;52.50;;;24.75;;
33184;SDS011;19550;42.872;25.494;2023-02-15T02:57:40;53.85;;;25.15;;
33184;SDS011;19550;42.872;25.494;2023-02-15T03:00:13;56.50;;;24.60;;
33184;SDS011;19550;42.872;25.494;2023-02-15T03:02:42;52.07;;;26.57;;
33184;SDS011;19550;42.872;25.494;2023-02-15T03:05:16;47.38;;;23.17;;
33184;SDS011;19550;42.872;25.494;2023-02-15T03:07:48;49.90;;;24.17;;
33184;SDS011;19550;42.872;25.494;2023-02-15T03:10:17;60.70;;;26.73;;
33184;SDS011;19550;42.872;25.494;2023-02-15T03:12:46;61.40;;;26.88;;
33184;SDS011;19550;42.872;25.494;2023-02-15T03:15:15;59.30;;;28.08;;
33184;SDS011;19550;42.872;25.494;2023-02-15T03:17:46;53.67;;;26.50;;
33184;SDS011;19550;42.872;25.494;2023-02-15T03:20:17;56.55;;;26.42;;
33184;SDS011;19550;42.872;25.494;2023-02-15T03:22:50;49.80;;;24.00;;
33184;SDS011;19550;42.872;25.494;2023-02-15T03:25:22;58.25;;;26.10;;
33184;SDS011;19550;42.872;25.494;2023-02-15T03:30:21;54.53;;;26.08;;
33184;SDS011;19550;42.872;25.494;2023-02-15T03:32:49;58.97;;;26.65;;
33184;SDS011;19550;42.872;25.494;2023-02-15T03:35:19;52.80;;;25.95;;
33184;SDS011;19550;42.872;25.494;2023-02-15T03:37:50;51.58;;;24.55;;
33184;SDS011;19550;42.872;25.494;2023-02-15T03:40:21;64.13;;;28.52;;
33184;SDS011;19550;42.872;25.494;2023-02-15T03:43:12;71.97;;;31.02;;
33184;SDS011;19550;42.872;25.494;2023-02-15T03:45:44;56.80;;;27.48;;
33184;SDS011;19550;42.872;25.494;2023-02-15T03:48:21;65.78;;;28.80;;
33184;SDS011;19550;42.872;25.494;2023-02-15T03:50:53;72.40;;;30.90;;
33184;SDS011;19550;42.872;25.494;2023-02-15T03:53:41;71.47;;;31.45;;
33184;SDS011;19550;42.872;25.494;2023-02-15T03:56:09;50.83;;;25.20;;
33184;SDS011;19550;42.872;25.494;2023-02-15T03:58:36;75.95;;;33.05;;
33184;SDS011;19550;42.872;25.494;2023-02-15T04:01:22;69.40;;;29.73;;
33184;SDS011;19550;42.872;25.494;2023-02-15T04:04:14;67.45;;;28.70;;
33184;SDS011;19550;42.872;25.494;2023-02-15T04:06:46;61.88;;;28.17;;
33184;SDS011;19550;42.872;25.494;2023-02-15T04:09:13;66.60;;;32.15;;
33184;SDS011;19550;42.872;25.494;2023-02-15T04:11:58;66.00;;;28.58;;
33184;SDS011;19550;42.872;25.494;2023-02-15T04:14:25;63.58;;;29.48;;
33184;SDS011;19550;42.872;25.494;2023-02-15T04:17:09;62.00;;;28.80;;
33184;SDS011;19550;42.872;25.494;2023-02-15T04:19:36;60.85;;;27.20;;
33184;SDS011;19550;42.872;25.494;2023-02-15T04:22:22;64.97;;;27.80;;
33184;SDS011;19550;42.872;25.494;2023-02-15T04:25:06;64.32;;;28.83;;
33184;SDS011;19550;42.872;25.494;2023-02-15T04:27:36;67.18;;;28.95;;
33184;SDS011;19550;42.872;25.494;2023-02-15T04:30:04;66.32;;;28.65;;
33184;SDS011;19550;42.872;25.494;2023-02-15T04:32:32;61.38;;;27.95;;
33184;SDS011;19550;42.872;25.494;2023-02-15T04:34:59;68.35;;;30.35;;
33184;SDS011;19550;42.872;25.494;2023-02-15T04:37:27;60.97;;;27.98;;
33184;SDS011;19550;42.872;25.494;2023-02-15T04:39:54;72.50;;;35.85;;
33184;SDS011;19550;42.872;25.494;2023-02-15T04:42:23;56.58;;;26.40;;
33184;SDS011;19550;42.872;25.494;2023-02-15T04:44:50;55.53;;;26.30;;
33184;SDS011;19550;42.872;25.494;2023-02-15T04:47:17;58.30;;;27.40;;
33184;SDS011;19550;42.872;25.494;2023-02-15T04:49:44;69.88;;;31.73;;
33184;SDS011;19550;42.872;25.494;2023-02-15T04:52:11;69.78;;;33.17;;
33184;SDS011;19550;42.872;25.494;2023-02-15T04:54:39;61.20;;;28.63;;
33184;SDS011;19550;42.872;25.494;2023-02-15T04:57:06;62.95;;;30.40;;
33184;SDS011;19550;42.872;25.494;2023-02-15T04:59:33;69.22;;;31.55;;
33184;SDS011;19550;42.872;25.494;2023-02-15T05:02:00;65.72;;;31.73;;
33184;SDS011;19550;42.872;25.494;2023-02-15T05:04:27;66.13;;;31.80;;
33184;SDS011;19550;42.872;25.494;2023-02-15T05:06:54;76.82;;;36.17;;
33184;SDS011;19550;42.872;25.494;2023-02-15T05:09:21;79.53;;;33.90;;
33184;SDS011;19550;42.872;25.494;2023-02-15T05:11:49;83.22;;;38.63;;
33184;SDS011;19550;42.872;25.494;2023-02-15T05:14:16;69.20;;;32.80;;
33184;SDS011;19550;42.872;25.494;2023-02-15T05:16:42;62.85;;;30.70;;
33184;SDS011;19550;42.872;25.494;2023-02-15T05:19:09;66.55;;;32.20;;
33184;SDS011;19550;42.872;25.494;2023-02-15T05:21:36;75.95;;;37.10;;
33184;SDS011;19550;42.872;25.494;2023-02-15T05:24:03;64.47;;;30.13;;
33184;SDS011;19550;42.872;25.494;2023-02-15T05:26:52;61.60;;;29.92;;
33184;SDS011;19550;42.872;25.494;2023-02-15T05:29:36;82.18;;;38.17;;
33184;SDS011;19550;42.872;25.494;2023-02-15T05:32:03;82.95;;;40.10;;
33184;SDS011;19550;42.872;25.494;2023-02-15T05:34:30;76.22;;;36.13;;
33184;SDS011;19550;42.872;25.494;2023-02-15T05:36:57;86.32;;;39.75;;
33184;SDS011;19550;42.872;25.494;2023-02-15T05:39:24;63.15;;;30.05;;
33184;SDS011;19550;42.872;25.494;2023-02-15T05:41:52;64.85;;;31.80;;
33184;SDS011;19550;42.872;25.494;2023-02-15T05:44:19;77.32;;;36.60;;
33184;SDS011;19550;42.872;25.494;2023-02-15T05:46:46;72.05;;;37.05;;
33184;SDS011;19550;42.872;25.494;2023-02-15T05:49:12;53.30;;;28.48;;
33184;SDS011;19550;42.872;25.494;2023-02-15T05:51:39;107.47;;;50.95;;
33184;SDS011;19550;42.872;25.494;2023-02-15T05:54:06;72.47;;;35.33;;
33184;SDS011;19550;42.872;25.494;2023-02-15T05:56:33;84.45;;;39.55;;
33184;SDS011;19550;42.872;25.494;2023-02-15T05:59:01;66.80;;;34.85;;
33184;SDS011;19550;42.872;25.494;2023-02-15T06:01:28;71.50;;;33.45;;
33184;SDS011;19550;42.872;25.494;2023-02-15T06:03:55;65.22;;;31.70;;
33184;SDS011;19550;42.872;25.494;2023-02-15T06:06:22;275.13;;;99.90;;
33184;SDS011;19550;42.872;25.494;2023-02-15T06:08:49;110.55;;;47.22;;
33184;SDS011;19550;42.872;25.494;2023-02-15T06:11:16;89.00;;;43.53;;
33184;SDS011;19550;42.872;25.494;2023-02-15T06:13:43;73.18;;;33.60;;
33184;SDS011;19550;42.872;25.494;2023-02-15T06:16:11;72.07;;;33.47;;
33184;SDS011;19550;42.872;25.494;2023-02-15T06:18:38;56.55;;;28.08;;
33184;SDS011;19550;42.872;25.494;2023-02-15T06:21:05;64.97;;;31.67;;
33184;SDS011;19550;42.872;25.494;2023-02-15T06:23:31;66.47;;;33.22;;
33184;SDS011;19550;42.872;25.494;2023-02-15T06:25:58;85.50;;;41.63;;
33184;SDS011;19550;42.872;25.494;2023-02-15T06:28:25;77.93;;;38.97;;
33184;SDS011;19550;42.872;25.494;2023-02-15T06:30:52;60.72;;;28.27;;
33184;SDS011;19550;42.872;25.494;2023-02-15T06:33:20;52.88;;;23.85;;
33184;SDS011;19550;42.872;25.494;2023-02-15T06:35:48;48.95;;;24.40;;
33184;SDS011;19550;42.872;25.494;2023-02-15T06:38:14;44.53;;;22.33;;
33184;SDS011;19550;42.872;25.494;2023-02-15T06:40:42;45.83;;;23.13;;
33184;SDS011;19550;42.872;25.494;2023-02-15T06:43:09;41.90;;;21.13;;
33184;SDS011;19550;42.872;25.494;2023-02-15T06:45:36;43.65;;;20.33;;
33184;SDS011;19550;42.872;25.494;2023-02-15T06:48:03;43.53;;;21.10;;
33184;SDS011;19550;42.872;25.494;2023-02-15T06:50:33;51.85;;;24.88;;
33184;SDS011;19550;42.872;25.494;2023-02-15T06:53:00;45.78;;;21.88;;
33184;SDS011;19550;42.872;25.494;2023-02-15T06:55:27;43.25;;;22.45;;
33184;SDS011;19550;42.872;25.494;2023-02-15T06:57:54;42.65;;;21.52;;
33184;SDS011;19550;42.872;25.494;2023-02-15T07:00:21;42.58;;;20.77;;
33184;SDS011;19550;42.872;25.494;2023-02-15T07:02:49;44.50;;;21.15;;
33184;SDS011;19550;42.872;25.494;2023-02-15T07:05:20;41.70;;;20.80;;
33184;SDS011;19550;42.872;25.494;2023-02-15T07:07:49;41.55;;;20.92;;
33184;SDS011;19550;42.872;25.494;2023-02-15T07:10:15;44.65;;;21.77;;
33184;SDS011;19550;42.872;25.494;2023-02-15T07:12:42;39.63;;;19.90;;
33184;SDS011;19550;42.872;25.494;2023-02-15T07:15:09;39.85;;;19.65;;
33184;SDS011;19550;42.872;25.494;2023-02-15T07:17:37;41.90;;;19.85;;
33184;SDS011;19550;42.872;25.494;2023-02-15T07:20:05;45.67;;;20.27;;
33184;SDS011;19550;42.872;25.494;2023-02-15T07:22:33;41.22;;;20.42;;
33184;SDS011;19550;42.872;25.494;2023-02-15T07:25:02;43.78;;;23.55;;
33184;SDS011;19550;42.872;25.494;2023-02-15T07:27:30;48.30;;;21.90;;
33184;SDS011;19550;42.872;25.494;2023-02-15T07:29:57;38.90;;;19.95;;
33184;SDS011;19550;42.872;25.494;2023-02-15T07:32:26;38.95;;;20.73;;
33184;SDS011;19550;42.872;25.494;2023-02-15T07:34:54;44.70;;;21.67;;
33184;SDS011;19550;42.872;25.494;2023-02-15T07:37:21;36.67;;;19.10;;
33184;SDS011;19550;42.872;25.494;2023-02-15T07:39:48;35.78;;;19.05;;
33184;SDS011;19550;42.872;25.494;2023-02-15T07:42:16;40.90;;;19.73;;
33184;SDS011;19550;42.872;25.494;2023-02-15T07:44:44;37.15;;;19.08;;
33184;SDS011;19550;42.872;25.494;2023-02-15T07:47:11;39.03;;;21.00;;
33184;SDS011;19550;42.872;25.494;2023-02-15T07:49:38;37.30;;;18.90;;
33184;SDS011;19550;42.872;25.494;2023-02-15T07:52:05;36.85;;;18.30;;
33184;SDS011;19550;42.872;25.494;2023-02-15T07:54:32;38.75;;;19.83;;
33184;SDS011;19550;42.872;25.494;2023-02-15T07:57:00;42.35;;;19.02;;
33184;SDS011;19550;42.872;25.494;2023-02-15T07:59:28;43.15;;;19.85;;
33184;SDS011;19550;42.872;25.494;2023-02-15T08:01:55;41.47;;;20.58;;
33184;SDS011;19550;42.872;25.494;2023-02-15T08:04:22;38.85;;;19.13;;
33184;SDS011;19550;42.872;25.494;2023-02-15T08:06:51;36.65;;;17.92;;
33184;SDS011;19550;42.872;25.494;2023-02-15T08:09:19;34.55;;;18.05;;
33184;SDS011;19550;42.872;25.494;2023-02-15T08:11:46;34.08;;;17.67;;
33184;SDS011;19550;42.872;25.494;2023-02-15T08:14:14;34.92;;;18.90;;
33184;SDS011;19550;42.872;25.494;2023-02-15T08:16:44;34.33;;;16.35;;
33184;SDS011;19550;42.872;25.494;2023-02-15T08:19:13;32.95;;;17.02;;
33184;SDS011;19550;42.872;25.494;2023-02-15T08:21:42;30.65;;;16.42;;
33184;SDS011;19550;42.872;25.494;2023-02-15T08:24:11;34.28;;;17.25;;
33184;SDS011;19550;42.872;25.494;2023-02-15T08:26:39;194.88;;;94.68;;
33184;SDS011;19550;42.872;25.494;2023-02-15T08:29:06;42.63;;;21.83;;
33184;SDS011;19550;42.872;25.494;2023-02-15T08:31:34;33.65;;;17.27;;
33184;SDS011;19550;42.872;25.494;2023-02-15T08:34:04;34.55;;;17.48;;
33184;SDS011;19550;42.872;25.494;2023-02-15T08:36:31;34.38;;;19.00;;
33184;SDS011;19550;42.872;25.494;2023-02-15T08:38:59;46.97;;;29.10;;
33184;SDS011;19550;42.872;25.494;2023-02-15T08:41:27;31.27;;;16.02;;
33184;SDS011;19550;42.872;25.494;2023-02-15T08:43:56;35.00;;;17.73;;
33184;SDS011;19550;42.872;25.494;2023-02-15T08:46:25;31.17;;;17.52;;
33184;SDS011;19550;42.872;25.494;2023-02-15T08:48:53;33.22;;;18.33;;
33184;SDS011;19550;42.872;25.494;2023-02-15T08:51:22;32.55;;;16.60;;
33184;SDS011;19550;42.872;25.494;2023-02-15T08:56:19;29.88;;;15.75;;
33184;SDS011;19550;42.872;25.494;2023-02-15T08:58:48;29.48;;;16.83;;
33184;SDS011;19550;42.872;25.494;2023-02-15T09:01:15;32.60;;;17.88;;
33184;SDS011;19550;42.872;25.494;2023-02-15T09:03:45;35.55;;;18.63;;
33184;SDS011;19550;42.872;25.494;2023-02-15T09:06:13;34.47;;;17.90;;
33184;SDS011;19550;42.872;25.494;2023-02-15T09:08:42;33.88;;;16.88;;
33184;SDS011;19550;42.872;25.494;2023-02-15T09:11:10;32.78;;;16.55;;
33184;SDS011;19550;42.872;25.494;2023-02-15T09:13:38;31.65;;;16.05;;
33184;SDS011;19550;42.872;25.494;2023-02-15T09:16:06;39.22;;;17.13;;
33184;SDS011;19550;42.872;25.494;2023-02-15T09:18:36;28.63;;;16.20;;
33184;SDS011;19550;42.872;25.494;2023-02-15T09:21:05;31.17;;;16.77;;
33184;SDS011;19550;42.872;25.494;2023-02-15T09:23:38;29.02;;;16.38;;
33184;SDS011;19550;42.872;25.494;2023-02-15T09:26:08;28.20;;;16.58;;
33184;SDS011;19550;42.872;25.494;2023-02-15T09:28:36;32.05;;;19.80;;
33184;SDS011;19550;42.872;25.494;2023-02-15T09:31:09;46.50;;;29.75;;
33184;SDS011;19550;42.872;25.494;2023-02-15T09:33:38;55.97;;;27.02;;
33184;SDS011;19550;42.872;25.494;2023-02-15T09:36:13;63.95;;;27.70;;
33184;SDS011;19550;42.872;25.494;2023-02-15T09:38:41;31.98;;;18.42;;
33184;SDS011;19550;42.872;25.494;2023-02-15T09:41:16;27.67;;;14.25;;
33184;SDS011;19550;42.872;25.494;2023-02-15T09:43:52;33.05;;;15.70;;
33184;SDS011;19550;42.872;25.494;2023-02-15T09:46:33;31.27;;;17.27;;
33184;SDS011;19550;42.872;25.494;2023-02-15T09:49:13;32.30;;;17.98;;
33184;SDS011;19550;42.872;25.494;2023-02-15T09:51:52;26.65;;;15.35;;
33184;SDS011;19550;42.872;25.494;2023-02-15T09:54:39;30.00;;;15.38;;
33184;SDS011;19550;42.872;25.494;2023-02-15T09:57:20;28.25;;;15.25;;
33184;SDS011;19550;42.872;25.494;2023-02-15T09:59:56;30.85;;;16.90;;
33184;SDS011;19550;42.872;25.494;2023-02-15T10:02:34;28.50;;;16.52;;
33184;SDS011;19550;42.872;25.494;2023-02-15T10:05:18;26.88;;;15.30;;
33184;SDS011;19550;42.872;25.494;2023-02-15T10:08:01;32.67;;;18.70;;
33184;SDS011;19550;42.872;25.494;2023-02-15T10:10:42;26.92;;;15.50;;
33184;SDS011;19550;42.872;25.494;2023-02-15T10:13:23;28.92;;;16.13;;
33184;SDS011;19550;42.872;25.494;2023-02-15T10:16:02;47.53;;;32.45;;
33184;SDS011;19550;42.872;25.494;2023-02-15T10:18:47;23.85;;;15.27;;
33184;SDS011;19550;42.872;25.494;2023-02-15T10:21:24;23.10;;;14.05;;
33184;SDS011;19550;42.872;25.494;2023-02-15T10:27:05;26.20;;;14.70;;
33184;SDS011;19550;42.872;25.494;2023-02-15T10:29:41;26.40;;;14.32;;
33184;SDS011;19550;42.872;25.494;2023-02-15T10:32:16;28.65;;;16.48;;
33184;SDS011;19550;42.872;25.494;2023-02-15T10:34:50;25.13;;;14.68;;
33184;SDS011;19550;42.872;25.494;2023-02-15T10:37:28;22.85;;;13.65;;
33184;SDS011;19550;42.872;25.494;2023-02-15T10:40:20;24.42;;;13.98;;
33184;SDS011;19550;42.872;25.494;2023-02-15T10:42:59;21.75;;;13.18;;
33184;SDS011;19550;42.872;25.494;2023-02-15T10:45:40;22.67;;;13.20;;
33184;SDS011;19550;42.872;25.494;2023-02-15T10:48:21;20.17;;;12.23;;
33184;SDS011;19550;42.872;25.494;2023-02-15T10:50:59;25.85;;;15.55;;
33184;SDS011;19550;42.872;25.494;2023-02-15T10:56:17;23.30;;;13.60;;
33184;SDS011;19550;42.872;25.494;2023-02-15T10:59:00;23.95;;;13.90;;
33184;SDS011;19550;42.872;25.494;2023-02-15T11:01:41;24.83;;;15.00;;
33184;SDS011;19550;42.872;25.494;2023-02-15T11:07:20;27.25;;;16.33;;
33184;SDS011;19550;42.872;25.494;2023-02-15T11:09:51;24.02;;;14.57;;
33184;SDS011;19550;42.872;25.494;2023-02-15T11:12:26;21.92;;;13.02;;
33184;SDS011;19550;42.872;25.494;2023-02-15T11:14:57;23.85;;;14.05;;
33184;SDS011;19550;42.872;25.494;2023-02-15T11:17:30;23.60;;;13.80;;
33184;SDS011;19550;42.872;25.494;2023-02-15T11:20:04;20.65;;;12.68;;
33184;SDS011;19550;42.872;25.494;2023-02-15T11:22:36;25.90;;;15.95;;
33184;SDS011;19550;42.872;25.494;2023-02-15T11:25:06;21.50;;;13.63;;
33184;SDS011;19550;42.872;25.494;2023-02-15T11:27:43;21.63;;;14.23;;
33184;SDS011;19550;42.872;25.494;2023-02-15T11:30:13;26.50;;;13.30;;
33184;SDS011;19550;42.872;25.494;2023-02-15T11:32:43;22.33;;;12.82;;
33184;SDS011;19550;42.872;25.494;2023-02-15T11:35:18;21.35;;;12.25;;
33184;SDS011;19550;42.872;25.494;2023-02-15T11:37:50;19.48;;;11.43;;
33184;SDS011;19550;42.872;25.494;2023-02-15T11:40:23;20.60;;;11.95;;
33184;SDS011;19550;42.872;25.494;2023-02-15T11:42:53;17.85;;;11.20;;
33184;SDS011;19550;42.872;25.494;2023-02-15T11:45:25;19.95;;;11.57;;
33184;SDS011;19550;42.872;25.494;2023-02-15T11:47:55;19.08;;;11.18;;
33184;SDS011;19550;42.872;25.494;2023-02-15T11:50:23;22.58;;;12.57;;
33184;SDS011;19550;42.872;25.494;2023-02-15T11:52:52;17.50;;;10.77;;
33184;SDS011;19550;42.872;25.494;2023-02-15T11:55:25;17.80;;;10.60;;
33184;SDS011;19550;42.872;25.494;2023-02-15T11:57:54;21.60;;;10.93;;
33184;SDS011;19550;42.872;25.494;2023-02-15T12:00:30;17.08;;;9.95;;
33184;SDS011;19550;42.872;25.494;2023-02-15T12:03:03;19.63;;;10.65;;
33184;SDS011;19550;42.872;25.494;2023-02-15T12:05:39;22.38;;;9.55;;
33184;SDS011;19550;42.872;25.494;2023-02-15T12:08:10;14.90;;;9.55;;
33184;SDS011;19550;42.872;25.494;2023-02-15T12:10:43;16.77;;;11.02;;
33184;SDS011;19550;42.872;25.494;2023-02-15T12:13:23;18.02;;;10.80;;
33184;SDS011;19550;42.872;25.494;2023-02-15T12:15:50;20.70;;;11.43;;
33184;SDS011;19550;42.872;25.494;2023-02-15T12:18:24;21.95;;;11.77;;
33184;SDS011;19550;42.872;25.494;2023-02-15T12:21:00;17.98;;;10.70;;
33184;SDS011;19550;42.872;25.494;2023-02-15T12:23:29;26.17;;;14.32;;
33184;SDS011;19550;42.872;25.494;2023-02-15T12:25:59;81.43;;;35.13;;
33184;SDS011;19550;42.872;25.494;2023-02-15T12:28:28;22.17;;;14.30;;
33184;SDS011;19550;42.872;25.494;2023-02-15T12:30:58;20.70;;;12.43;;
33184;SDS011;19550;42.872;25.494;2023-02-15T12:33:30;25.92;;;15.20;;
33184;SDS011;19550;42.872;25.494;2023-02-15T12:36:01;21.85;;;12.63;;
33184;SDS011;19550;42.872;25.494;2023-02-15T12:38:36;17.88;;;10.82;;
33184;SDS011;19550;42.872;25.494;2023-02-15T12:41:04;18.25;;;10.60;;
33184;SDS011;19550;42.872;25.494;2023-02-15T12:43:47;19.67;;;12.07;;
33184;SDS011;19550;42.872;25.494;2023-02-15T12:46:30;17.05;;;10.30;;
33184;SDS011;19550;42.872;25.494;2023-02-15T12:49:06;24.90;;;14.70;;
33184;SDS011;19550;42.872;25.494;2023-02-15T12:51:44;23.10;;;12.85;;
33184;SDS011;19550;42.872;25.494;2023-02-15T12:57:12;18.67;;;12.05;;
33184;SDS011;19550;42.872;25.494;2023-02-15T12:59:51;19.88;;;12.77;;
33184;SDS011;19550;42.872;25.494;2023-02-15T13:02:22;19.23;;;11.38;;
33184;SDS011;19550;42.872;25.494;2023-02-15T13:04:53;26.20;;;16.25;;
33184;SDS011;19550;42.872;25.494;2023-02-15T13:07:22;19.05;;;11.95;;
33184;SDS011;19550;42.872;25.494;2023-02-15T13:09:56;19.23;;;12.10;;
33184;SDS011;19550;42.872;25.494;2023-02-15T13:12:24;19.20;;;11.63;;
33184;SDS011;19550;42.872;25.494;2023-02-15T13:14:53;19.08;;;11.88;;
33184;SDS011;19550;42.872;25.494;2023-02-15T13:17:23;20.07;;;11.53;;
33184;SDS011;19550;42.872;25.494;2023-02-15T13:19:56;22.30;;;13.05;;
33184;SDS011;19550;42.872;25.494;2023-02-15T13:22:29;19.88;;;12.55;;
33184;SDS011;19550;42.872;25.494;2023-02-15T13:25:03;20.50;;;10.43;;
33184;SDS011;19550;42.872;25.494;2023-02-15T13:27:36;19.77;;;13.02;;
33184;SDS011;19550;42.872;25.494;2023-02-15T13:30:10;20.85;;;13.00;;
33184;SDS011;19550;42.872;25.494;2023-02-15T13:32:48;21.70;;;13.23;;
33184;SDS011;19550;42.872;25.494;2023-02-15T13:35:19;21.00;;;11.35;;
33184;SDS011;19550;42.872;25.494;2023-02-15T13:37:57;21.88;;;13.02;;
33184;SDS011;19550;42.872;25.494;2023-02-15T13:40:33;19.00;;;10.95;;
33184;SDS011;19550;42.872;25.494;2023-02-15T13:43:05;19.35;;;10.75;;
33184;SDS011;19550;42.872;25.494;2023-02-15T13:45:50;33.20;;;18.92;;
33184;SDS011;19550;42.872;25.494;2023-02-15T13:48:29;30.88;;;17.88;;
33184;SDS011;19550;42.872;25.494;2023-02-15T13:51:07;22.48;;;13.50;;
33184;SDS011;19550;42.872;25.494;2023-02-15T13:56:53;18.25;;;10.38;;
33184;SDS011;19550;42.872;25.494;2023-02-15T13:59:38;39.22;;;21.77;;
33184;SDS011;19550;42.872;25.494;2023-02-15T14:02:35;20.35;;;10.82;;
33184;SDS011;19550;42.872;25.494;2023-02-15T14:05:22;26.80;;;15.67;;
33184;SDS011;19550;42.872;25.494;2023-02-15T14:08:01;19.42;;;10.77;;
33184;SDS011;19550;42.872;25.494;2023-02-15T14:10:44;24.65;;;13.35;;
33184;SDS011;19550;42.872;25.494;2023-02-15T14:13:34;36.88;;;17.13;;
33184;SDS011;19550;42.872;25.494;2023-02-15T14:16:17;35.50;;;18.48;;
33184;SDS011;19550;42.872;25.494;2023-02-15T14:18:54;39.65;;;21.83;;
33184;SDS011;19550;42.872;25.494;2023-02-15T14:21:26;30.15;;;16.63;;
33184;SDS011;19550;42.872;25.494;2023-02-15T14:24:04;28.35;;;15.25;;
33184;SDS011;19550;42.872;25.494;2023-02-15T14:26:43;35.50;;;20.15;;
33184;SDS011;19550;42.872;25.494;2023-02-15T14:29:20;35.15;;;18.38;;
33184;SDS011;19550;42.872;25.494;2023-02-15T14:31:55;39.85;;;21.70;;
33184;SDS011;19550;42.872;25.494;2023-02-15T14:34:27;22.45;;;11.73;;
33184;SDS011;19550;42.872;25.494;2023-02-15T14:37:03;38.55;;;21.02;;
33184;SDS011;19550;42.872;25.494;2023-02-15T14:39:35;51.13;;;19.58;;
33184;SDS011;19550;42.872;25.494;2023-02-15T14:42:25;72.47;;;34.58;;
33184;SDS011;19550;42.872;25.494;2023-02-15T14:45:00;36.22;;;18.77;;
33184;SDS011;19550;42.872;25.494;2023-02-15T14:47:33;47.63;;;23.58;;
33184;SDS011;19550;42.872;25.494;2023-02-15T14:50:35;26.80;;;14.88;;
33184;SDS011;19550;42.872;25.494;2023-02-15T14:53:15;45.22;;;23.95;;
33184;SDS011;19550;42.872;25.494;2023-02-15T14:55:44;39.00;;;21.35;;
33184;SDS011;19550;42.872;25.494;2023-02-15T14:58:12;20.05;;;10.95;;
33184;SDS011;19550;42.872;25.494;2023-02-15T15:00:40;34.83;;;22.23;;
33184;SDS011;19550;42.872;25.494;2023-02-15T15:03:12;27.77;;;14.38;;
33184;SDS011;19550;42.872;25.494;2023-02-15T15:05:48;39.60;;;19.88;;